BGA114H LFBO-EGNR
Flight info
| Callsign | BGA114H |
|---|---|
| Flight time | N/A |
| Altitude | 34000 |
| Route | LACOU DCT CHALA/N0404F320 DCT CNA DCT MANAK/N0411F340 DCT MUREL DCT NOZHU/N0406F330 DCT SHIRI DCT TOJAQ DCT EPACE DCT ACCOP DCT MOCQO P16 PEPZE |
| Aircraft | A337/H-SDE3GHIJ2J3J5M1RVWXY/LB2D1 |
Departure
| Time | N/A |
|---|---|
| Airport | Toulouse-Blagnac Airport (LFBO) |
Arrival
| Time | 2026-04-27 16:45 |
|---|---|
| Airport | Hawarden Airport (EGNR) |
| Time | Latitude | Longitude | Altitude | Speed | Heading |
|---|---|---|---|---|---|
| 2026-04-27 15:58 | 49.64529 | -3.73595 | 34264 ft | 375 kts | 343° |
| 2026-04-27 15:58 | 49.66984 | -3.74957 | 34265 ft | 373 kts | 347° |
| 2026-04-27 15:59 | 49.72024 | -3.76028 | 34264 ft | 361 kts | 4° |
| 2026-04-27 15:59 | 49.77020 | -3.75681 | 34266 ft | 358 kts | 7° |
| 2026-04-27 16:00 | 49.81979 | -3.75064 | 34265 ft | 357 kts | 8° |
| 2026-04-27 16:00 | 49.86934 | -3.74422 | 34269 ft | 357 kts | 8° |
| 2026-04-27 16:01 | 49.91886 | -3.73813 | 34256 ft | 357 kts | 7° |
| 2026-04-27 16:01 | 49.96841 | -3.73222 | 34266 ft | 357 kts | 7° |
| 2026-04-27 16:02 | 50.01800 | -3.72635 | 34262 ft | 357 kts | 7° |
| 2026-04-27 16:02 | 50.06751 | -3.72047 | 34265 ft | 357 kts | 7° |
| 2026-04-27 16:03 | 50.11706 | -3.71456 | 34259 ft | 357 kts | 7° |
| 2026-04-27 16:03 | 50.16689 | -3.70859 | 34257 ft | 356 kts | 7° |
| 2026-04-27 16:04 | 50.21625 | -3.70267 | 34260 ft | 356 kts | 7° |
| 2026-04-27 16:04 | 50.26526 | -3.69678 | 34257 ft | 356 kts | 7° |
| 2026-04-27 16:05 | 50.31463 | -3.69084 | 34256 ft | 356 kts | 7° |
| 2026-04-27 16:05 | 50.36436 | -3.68483 | 34257 ft | 357 kts | 6° |
| 2026-04-27 16:06 | 50.41387 | -3.67867 | 34256 ft | 357 kts | 7° |
| 2026-04-27 16:06 | 50.46319 | -3.67016 | 34261 ft | 356 kts | 9° |
| 2026-04-27 16:07 | 50.51209 | -3.66056 | 34253 ft | 356 kts | 9° |
| 2026-04-27 16:07 | 50.56126 | -3.65091 | 34254 ft | 356 kts | 9° |
| 2026-04-27 16:08 | 50.61041 | -3.64144 | 34255 ft | 355 kts | 8° |
| 2026-04-27 16:08 | 50.65895 | -3.63216 | 34265 ft | 349 kts | 8° |
| 2026-04-27 16:09 | 50.70711 | -3.62296 | 34265 ft | 349 kts | 8° |
| 2026-04-27 16:09 | 50.77940 | -3.60910 | 34263 ft | 349 kts | 8° |
| 2026-04-27 16:10 | 50.87517 | -3.59066 | 34264 ft | 341 kts | 8° |
| 2026-04-27 16:11 | 50.94568 | -3.57704 | 34261 ft | 340 kts | 8° |
| 2026-04-27 16:12 | 51.01606 | -3.56339 | 34262 ft | 340 kts | 8° |
| 2026-04-27 16:13 | 51.08645 | -3.54971 | 34261 ft | 340 kts | 8° |
| 2026-04-27 16:13 | 51.15687 | -3.53598 | 34264 ft | 340 kts | 8° |
| 2026-04-27 16:14 | 51.25074 | -3.51761 | 34260 ft | 340 kts | 8° |
| 2026-04-27 16:15 | 51.34385 | -3.49930 | 34267 ft | 332 kts | 7° |
| 2026-04-27 16:16 | 51.43533 | -3.48125 | 34267 ft | 331 kts | 7° |
| 2026-04-27 16:17 | 51.52684 | -3.46311 | 34272 ft | 331 kts | 6° |
| 2026-04-27 16:18 | 51.61723 | -3.44513 | 34267 ft | 326 kts | 6° |
| 2026-04-27 16:19 | 51.66217 | -3.43617 | 34263 ft | 325 kts | 6° |
| 2026-04-27 16:20 | 51.75210 | -3.41817 | 34059 ft | 323 kts | 6° |
| 2026-04-27 16:20 | 51.79622 | -3.40928 | 33523 ft | 318 kts | 6° |
| 2026-04-27 16:21 | 51.81821 | -3.40486 | 33247 ft | 319 kts | 6° |
| 2026-04-27 16:21 | 51.88466 | -3.39148 | 32481 ft | 322 kts | 5° |
| 2026-04-27 16:22 | 51.90696 | -3.38698 | 32222 ft | 323 kts | 5° |
| 2026-04-27 16:22 | 51.95175 | -3.37998 | 31708 ft | 324 kts | 2° |
| 2026-04-27 16:22 | 51.97431 | -3.37810 | 31455 ft | 325 kts | 1° |
| 2026-04-27 16:23 | 51.99692 | -3.37668 | 31200 ft | 326 kts | 1° |
| 2026-04-27 16:23 | 52.04199 | -3.37403 | 30707 ft | 318 kts | 1° |
| 2026-04-27 16:23 | 52.06380 | -3.37264 | 30322 ft | 311 kts | 1° |
| 2026-04-27 16:24 | 52.08537 | -3.37118 | 29812 ft | 308 kts | 1° |
| 2026-04-27 16:24 | 52.12766 | -3.36819 | 28878 ft | 304 kts | 1° |
| 2026-04-27 16:25 | 52.17023 | -3.36511 | 27929 ft | 309 kts | 0° |
| 2026-04-27 16:25 | 52.21348 | -3.36197 | 26899 ft | 313 kts | 0° |
| 2026-04-27 16:26 | 52.25728 | -3.35875 | 25813 ft | 316 kts | 359° |
| 2026-04-27 16:26 | 52.29394 | -3.35608 | 24852 ft | 319 kts | 359° |
| 2026-04-27 16:27 | 52.33862 | -3.35283 | 23836 ft | 323 kts | 359° |
| 2026-04-27 16:27 | 52.40560 | -3.34791 | 22535 ft | 319 kts | 359° |
| 2026-04-27 16:28 | 52.44980 | -3.34467 | 21677 ft | 317 kts | 359° |
| 2026-04-27 16:28 | 52.49358 | -3.34145 | 20851 ft | 312 kts | 359° |
| 2026-04-27 16:29 | 52.55767 | -3.33670 | 19562 ft | 306 kts | 359° |
| 2026-04-27 16:30 | 52.60015 | -3.33356 | 18703 ft | 304 kts | 359° |
| 2026-04-27 16:30 | 52.64389 | -3.32323 | 17821 ft | 333 kts | 12° |
| 2026-04-27 16:31 | 52.70921 | -3.28444 | 16457 ft | 332 kts | 15° |
| 2026-04-27 16:31 | 52.75241 | -3.25838 | 15597 ft | 329 kts | 15° |
| 2026-04-27 16:32 | 52.79532 | -3.23261 | 14721 ft | 327 kts | 15° |
| 2026-04-27 16:32 | 52.81674 | -3.21977 | 14288 ft | 328 kts | 15° |
| 2026-04-27 16:33 | 52.85829 | -3.19471 | 13640 ft | 303 kts | 15° |
| 2026-04-27 16:33 | 52.87774 | -3.18298 | 13247 ft | 291 kts | 15° |
| 2026-04-27 16:33 | 52.89683 | -3.17471 | 12866 ft | 280 kts | 4° |
| 2026-04-27 16:33 | 52.91620 | -3.17179 | 12490 ft | 278 kts | 360° |
| 2026-04-27 16:34 | 52.93548 | -3.17025 | 12120 ft | 277 kts | 359° |
| 2026-04-27 16:34 | 52.95463 | -3.16889 | 11752 ft | 275 kts | 359° |
| 2026-04-27 16:34 | 52.97370 | -3.16752 | 11389 ft | 273 kts | 359° |
| 2026-04-27 16:34 | 52.99267 | -3.16610 | 10967 ft | 272 kts | 360° |
| 2026-04-27 16:35 | 53.01148 | -3.16467 | 10475 ft | 270 kts | 0° |
| 2026-04-27 16:35 | 53.03012 | -3.16322 | 10076 ft | 267 kts | 0° |
| 2026-04-27 16:35 | 53.06726 | -3.16030 | 9355 ft | 266 kts | 0° |
| 2026-04-27 16:36 | 53.08574 | -3.15885 | 9004 ft | 265 kts | 1° |
| 2026-04-27 16:36 | 53.10417 | -3.15739 | 8661 ft | 264 kts | 1° |
| 2026-04-27 16:36 | 53.12250 | -3.15594 | 8303 ft | 263 kts | 1° |
| 2026-04-27 16:36 | 53.14061 | -3.15451 | 8035 ft | 254 kts | 1° |
| 2026-04-27 16:37 | 53.15783 | -3.15312 | 7796 ft | 243 kts | 1° |
| 2026-04-27 16:37 | 53.17440 | -3.15139 | 7489 ft | 235 kts | 6° |
| 2026-04-27 16:37 | 53.18950 | -3.14263 | 7262 ft | 229 kts | 31° |
| 2026-04-27 16:37 | 53.20006 | -3.12309 | 7029 ft | 228 kts | 54° |
| 2026-04-27 16:38 | 53.20867 | -3.10126 | 6663 ft | 226 kts | 52° |
| 2026-04-27 16:38 | 53.21810 | -3.08000 | 6142 ft | 229 kts | 50° |
| 2026-04-27 16:38 | 53.22787 | -3.05916 | 5623 ft | 227 kts | 51° |
| 2026-04-27 16:38 | 53.23768 | -3.03868 | 5116 ft | 224 kts | 50° |
| 2026-04-27 16:39 | 53.24732 | -3.01845 | 4603 ft | 222 kts | 49° |
| 2026-04-27 16:39 | 53.25687 | -2.99815 | 4071 ft | 223 kts | 49° |
| 2026-04-27 16:39 | 53.26629 | -2.97743 | 3572 ft | 225 kts | 49° |
| 2026-04-27 16:39 | 53.27559 | -2.95617 | 3065 ft | 228 kts | 50° |
| 2026-04-27 16:40 | 53.28514 | -2.93482 | 2568 ft | 230 kts | 50° |
| 2026-04-27 16:40 | 53.29443 | -2.91365 | 2302 ft | 220 kts | 51° |
| 2026-04-27 16:40 | 53.30318 | -2.89321 | 2041 ft | 212 kts | 48° |
| 2026-04-27 16:40 | 53.30945 | -2.87132 | 1778 ft | 211 kts | 77° |
| 2026-04-27 16:41 | 53.30734 | -2.84731 | 1725 ft | 220 kts | 111° |
| 2026-04-27 16:41 | 53.29732 | -2.82789 | 1705 ft | 218 kts | 144° |
| 2026-04-27 16:41 | 53.28392 | -2.82039 | 1701 ft | 194 kts | 183° |
| 2026-04-27 16:41 | 53.27284 | -2.82817 | 1699 ft | 164 kts | 236° |
| 2026-04-27 16:42 | 53.26629 | -2.84266 | 1719 ft | 150 kts | 243° |
| 2026-04-27 16:42 | 53.25994 | -2.85615 | 1709 ft | 147 kts | 238° |
| 2026-04-27 16:42 | 53.25291 | -2.86860 | 1684 ft | 148 kts | 229° |
| 2026-04-27 16:42 | 53.24518 | -2.88029 | 1669 ft | 151 kts | 228° |
| 2026-04-27 16:43 | 53.23739 | -2.89163 | 1480 ft | 144 kts | 229° |
| 2026-04-27 16:43 | 53.23015 | -2.90211 | 1307 ft | 131 kts | 231° |
| 2026-04-27 16:43 | 53.22338 | -2.91203 | 1109 ft | 129 kts | 228° |
| 2026-04-27 16:43 | 53.21665 | -2.92182 | 935 ft | 129 kts | 231° |
| 2026-04-27 16:44 | 53.20990 | -2.93164 | 743 ft | 129 kts | 227° |
| 2026-04-27 16:44 | 53.20317 | -2.94136 | 590 ft | 128 kts | 229° |
| 2026-04-27 16:44 | 53.19645 | -2.95112 | 403 ft | 129 kts | 229° |
| 2026-04-27 16:44 | 53.18958 | -2.96085 | 226 ft | 129 kts | 232° |
| 2026-04-27 16:45 | 53.18289 | -2.97069 | 38 ft | 127 kts | 231° |
| 2026-04-27 16:45 | 53.17745 | -2.97875 | 26 ft | 77 kts | 222° |
| 2026-04-27 16:45 | 53.17375 | -2.98400 | 28 ft | 59 kts | 221° |
| 2026-04-27 16:45 | 53.17222 | -2.98628 | 27 ft | 11 kts | 228° |
| 2026-04-27 16:46 | 53.17176 | -2.98752 | 28 ft | 8 kts | 229° |
| 2026-04-27 16:46 | 53.17156 | -2.98770 | 31 ft | 1 kts | 192° |
| 2026-04-27 16:46 | 53.17152 | -2.98769 | 26 ft | 2 kts | 177° |
| 2026-04-27 16:46 | 53.17145 | -2.98729 | 27 ft | 6 kts | 70° |
| 2026-04-27 16:47 | 53.17197 | -2.98653 | 26 ft | 13 kts | 40° |
| 2026-04-27 16:47 | 53.17271 | -2.98548 | 26 ft | 16 kts | 41° |
| 2026-04-27 16:47 | 53.17366 | -2.98410 | 27 ft | 20 kts | 40° |
| 2026-04-27 16:47 | 53.17482 | -2.98244 | 26 ft | 24 kts | 40° |
| 2026-04-27 16:48 | 53.17615 | -2.98054 | 25 ft | 26 kts | 42° |
| 2026-04-27 16:48 | 53.17694 | -2.97933 | 25 ft | 9 kts | 45° |
| 2026-04-27 16:48 | 53.17694 | -2.97831 | 21 ft | 13 kts | 122° |
| 2026-04-27 16:49 | 53.17637 | -2.97595 | 14 ft | 12 kts | 54° |
| 2026-04-27 16:49 | 53.17701 | -2.97491 | 15 ft | 13 kts | 45° |
| 2026-04-27 16:49 | 53.17747 | -2.97415 | 17 ft | 8 kts | 44° |
| 2026-04-27 16:49 | 53.17760 | -2.97335 | 15 ft | 5 kts | 115° |
| 2026-04-27 16:50 | 53.17732 | -2.97286 | 16 ft | 8 kts | 133° |
| 2026-04-27 16:50 | 53.17718 | -2.97261 | 17 ft | 0 kts | 133° |